Durian, Arkansas
Current Conditions -  °F | °C
As of 9:53 AM on Saturday 22 Nov 2014 (Local Time) from KHOT Reporting Station
Overcast Overcast  
Wind Chill: 56°   Ceiling: 3600
Heat Index: 56°   Visibility: 10mi
Dew Point: 50°   Wind: 7mph
Humidity: 80%   Direction: 160°SSE
Pressure: 30.19"   Gusts: NA
Location:  34.3189°N, 92.8629°W
Report Text: KHOT 221553Z AUTO 16006KT 10SM FEW016 OVC036 13/10 A3019 RMK AO2 SLP220 T01330100
Loading
Personal Weather Stations






























Interactive Weather Map New forecast layout! Learn more

10-Day Weather Forecast

Advertisements
Track Severe Weather on mobile